Time;durP1;ratioP1;P1;durP2;ratioP2;P2;SDS_P1;SDS_P2;PMS_P1;PMS_P2;Temp;Humidity;BMP_temperature;BMP_pressure;BME280_temperature;BME280_humidity;BME280_pressure;Samples;Min_cycle;Max_cycle;Signal;HPM_P1;HPM_P2
2021/10/01 00:00:19;;;;;;;10.93;7.40;;;;;;;7.32;100.00;94117.18;1800360;77;20987;-87
2021/10/01 00:02:45;;;;;;;16.15;6.83;;;;;;;7.26;100.00;94118.05;1813156;77;21046;-88
2021/10/01 00:05:12;;;;;;;12.78;6.40;;;;;;;7.23;100.00;94120.69;1810756;77;21081;-88
2021/10/01 00:07:39;;;;;;;10.10;6.03;;;;;;;7.26;100.00;94120.76;1806391;78;21094;-89
2021/10/01 00:10:07;;;;;;;10.25;6.47;;;;;;;7.23;99.67;94113.34;1779246;78;21496;-88
2021/10/01 00:12:34;;;;;;;11.97;6.50;;;;;;;7.14;99.88;94121.45;1773038;79;21089;-87
2021/10/01 00:15:01;;;;;;;10.98;5.97;;;;;;;7.06;100.00;94117.25;1735527;81;21509;-89
2021/10/01 00:17:29;;;;;;;11.73;6.37;;;;;;;7.03;100.00;94118.52;1757301;80;21510;-88
2021/10/01 00:19:56;;;;;;;9.25;6.47;;;;;;;6.94;100.00;94112.55;1769874;79;21178;-88
2021/10/01 00:22:24;;;;;;;14.00;6.80;;;;;;;6.90;100.00;94115.75;1759904;80;21015;-87
2021/10/01 00:24:52;;;;;;;15.58;6.80;;;;;;;6.88;100.00;94112.03;1739327;80;21730;-87
2021/10/01 00:27:19;;;;;;;13.53;6.53;;;;;;;6.88;100.00;94112.03;1781150;80;21637;-87
2021/10/01 00:29:46;;;;;;;11.70;6.08;;;;;;;6.84;100.00;94111.75;1768198;78;21056;-88
2021/10/01 00:32:13;;;;;;;11.73;7.15;;;;;;;6.80;100.00;94114.38;1783268;78;21055;-88
2021/10/01 00:34:40;;;;;;;10.95;6.55;;;;;;;6.79;100.00;94112.25;1777717;78;21092;-87
2021/10/01 00:37:07;;;;;;;12.28;6.83;;;;;;;6.79;100.00;94108.77;1779021;78;20999;-87
2021/10/01 00:39:35;;;;;;;15.18;6.58;;;;;;;6.83;100.00;94110.20;1783149;79;21045;-87
2021/10/01 00:42:02;;;;;;;11.20;6.60;;;;;;;6.88;100.00;94102.58;1822245;77;20998;-88
2021/10/01 00:44:30;;;;;;;13.08;6.10;;;;;;;6.86;100.00;94102.16;1728271;80;21120;-87
2021/10/01 00:46:57;;;;;;;11.45;6.72;;;;;;;6.81;100.00;94096.47;1832661;77;21018;-87
2021/10/01 00:49:24;;;;;;;16.60;6.67;;;;;;;6.78;100.00;94099.09;1839819;77;21045;-88
2021/10/01 00:51:52;;;;;;;16.40;6.80;;;;;;;6.77;100.00;94098.86;1831243;77;21741;-88
2021/10/01 00:54:19;;;;;;;12.95;6.62;;;;;;;6.72;100.00;94093.75;1831167;77;21014;-87
2021/10/01 00:56:46;;;;;;;12.00;6.78;;;;;;;6.71;100.00;94092.97;1845111;77;21120;-88
2021/10/01 00:59:16;;;;;;;12.35;6.85;;;;;;;6.72;100.00;94091.05;1844626;77;21073;-88
2021/10/01 01:01:43;;;;;;;13.03;6.95;;;;;;;6.79;100.00;94093.91;1839139;77;20997;-89
2021/10/01 01:04:10;;;;;;;12.98;6.22;;;;;;;6.86;100.00;94087.87;1838130;77;20986;-88
2021/10/01 01:07:06;;;;;;;10.65;5.90;;;;;;;6.89;100.00;94083.89;1846385;77;21049;-87
2021/10/01 01:09:37;;;;;;;8.93;6.45;;;;;;;6.87;100.00;94087.50;1831714;77;21584;-87
2021/10/01 01:12:22;;;;;;;15.10;6.75;;;;;;;6.85;100.00;94089.79;1772964;80;21109;-88
2021/10/01 01:15:05;;;;;;;14.13;6.72;;;;;;;6.83;100.00;94080.46;1806035;79;21668;-87
2021/10/01 01:17:43;;;;;;;12.10;6.75;;;;;;;6.78;100.00;94083.66;1785008;79;21081;-86
2021/10/01 01:20:22;;;;;;;11.57;6.22;;;;;;;6.75;100.00;94083.59;1761481;79;21043;-87
2021/10/01 01:23:14;;;;;;;11.15;6.37;;;;;;;6.71;100.00;94078.67;1808480;78;21136;-87
2021/10/01 01:25:53;;;;;;;10.93;6.60;;;;;;;6.70;100.00;94081.17;1754397;80;21506;-87
2021/10/01 01:29:07;;;;;;;11.10;6.12;;;;;;;6.71;100.00;94078.67;1730097;80;21058;-86
2021/10/01 01:31:59;;;;;;;13.40;7.00;;;;;;;6.70;100.00;94083.88;1750003;80;21050;-87
2021/10/01 01:34:33;;;;;;;9.43;6.20;;;;;;;6.67;100.00;94079.95;1748819;80;20975;-86
2021/10/01 01:37:05;;;;;;;10.43;6.25;;;;;;;6.67;100.00;94075.89;1757778;80;21919;-87
2021/10/01 01:39:33;;;;;;;9.25;6.95;;;;;;;6.69;100.00;94074.95;1815886;77;20998;-87
2021/10/01 01:42:00;;;;;;;11.08;6.17;;;;;;;6.67;100.00;94073.77;1850191;76;21009;-87
2021/10/01 01:44:28;;;;;;;9.10;6.90;;;;;;;6.70;100.00;94068.44;1839741;77;21014;-87
2021/10/01 01:46:55;;;;;;;10.32;6.15;;;;;;;6.70;100.00;94069.79;1764928;78;21095;-87
2021/10/01 01:49:22;;;;;;;13.68;6.60;;;;;;;6.74;100.00;94064.45;1811020;77;21122;-87
2021/10/01 01:51:50;;;;;;;9.50;5.85;;;;;;;6.71;100.00;94075.97;1769551;79;21062;-87
2021/10/01 01:54:18;;;;;;;12.63;6.30;;;;;;;6.75;100.00;94080.31;1731863;82;20977;-87
2021/10/01 01:56:46;;;;;;;10.50;6.12;;;;;;;6.79;100.00;94073.05;1755588;79;20995;-87
2021/10/01 01:59:13;;;;;;;9.80;6.70;;;;;;;6.83;100.00;94078.53;1793493;79;21481;-86
2021/10/01 02:01:41;;;;;;;14.30;6.45;;;;;;;6.85;100.00;94080.91;1778015;79;21596;-87
2021/10/01 02:04:10;;;;;;;9.23;6.00;;;;;;;6.90;100.00;94074.62;1728697;79;21056;-87
2021/10/01 02:06:37;;;;;;;14.07;6.80;;;;;;;6.97;100.00;94079.41;1787168;79;21297;-87
2021/10/01 02:09:05;;;;;;;15.45;6.90;;;;;;;6.98;99.64;94080.39;1759084;80;21007;-87
2021/10/01 02:11:34;;;;;;;15.45;7.45;;;;;;;6.97;99.38;94079.41;1772769;80;21034;-86
2021/10/01 02:14:02;;;;;;;14.55;6.67;;;;;;;6.90;99.32;94082.73;1769871;80;21088;-87
2021/10/01 02:16:29;;;;;;;18.20;10.50;;;;;;;6.89;99.68;94083.11;1766022;80;21572;-88
2021/10/01 02:18:57;;;;;;;14.80;9.28;;;;;;;6.88;100.00;94082.30;1777386;80;21042;-87
2021/10/01 02:21:24;;;;;;;13.88;8.68;;;;;;;6.90;100.00;94078.69;1753862;80;21066;-86
2021/10/01 02:23:51;;;;;;;15.03;9.10;;;;;;;6.90;100.00;94081.39;1763017;80;21034;-87
2021/10/01 02:26:48;;;;;;;15.35;8.73;;;;;;;6.92;100.00;94081.02;1766639;80;21518;-87
2021/10/01 02:29:35;;;;;;;12.65;7.70;;;;;;;6.96;100.00;94075.14;1753581;80;21509;-87
2021/10/01 02:32:20;;;;;;;14.73;7.10;;;;;;;7.04;100.00;94079.55;1754694;80;21092;-86
2021/10/01 02:34:46;;;;;;;11.15;7.70;;;;;;;7.05;100.00;94080.53;1767427;78;21037;-86
2021/10/01 02:37:16;;;;;;;13.68;8.08;;;;;;;7.09;100.00;94080.61;1778351;80;21157;-86
2021/10/01 02:39:45;;;;;;;17.12;9.20;;;;;;;7.14;100.00;94082.23;1762261;80;21921;-86
2021/10/01 02:42:13;;;;;;;18.00;8.30;;;;;;;7.20;100.00;94081.59;1751190;80;21652;-86
2021/10/01 02:44:41;;;;;;;11.10;7.37;;;;;;;7.23;100.00;94079.53;1754973;80;21073;-86
2021/10/01 02:47:08;;;;;;;12.37;7.78;;;;;;;7.24;100.00;94077.61;1751025;80;21083;-86
2021/10/01 02:49:35;;;;;;;12.18;7.67;;;;;;;7.23;99.98;94077.41;1768650;80;21569;-87
2021/10/01 02:54:50;;;;;;;19.57;8.15;;;;;;;7.22;100.00;94092.05;1762139;80;21056;-87
2021/10/01 02:57:21;;;;;;;13.70;8.45;;;;;;;7.22;100.00;94090.70;1742113;79;21059;-87
2021/10/01 02:59:48;;;;;;;15.20;8.53;;;;;;;7.22;100.00;94089.34;1765008;79;21070;-87
2021/10/01 03:02:15;;;;;;;14.10;8.80;;;;;;;7.23;100.00;94089.58;1695308;80;21108;-87
2021/10/01 03:04:45;;;;;;;13.65;8.10;;;;;;;7.23;100.00;94083.59;1738919;79;21716;-87
2021/10/01 03:07:11;;;;;;;16.57;9.05;;;;;;;7.21;100.00;94087.21;1813020;77;21116;-87
2021/10/01 03:09:40;;;;;;;13.38;8.93;;;;;;;7.19;100.00;94082.75;1790100;79;21085;-87
2021/10/01 03:12:07;;;;;;;15.28;8.60;;;;;;;7.24;100.00;94077.61;1796678;77;21027;-88
2021/10/01 03:14:35;;;;;;;15.45;8.68;;;;;;;7.28;100.00;94078.45;1798092;78;21059;-87
2021/10/01 03:17:02;;;;;;;11.45;7.25;;;;;;;7.28;100.00;94081.16;1772875;79;21768;-87
2021/10/01 03:19:29;;;;;;;16.05;7.60;;;;;;;7.27;100.00;94085.02;1782818;79;21069;-87
2021/10/01 03:21:57;;;;;;;14.30;8.40;;;;;;;7.27;99.63;94076.33;1794778;79;21042;-87
2021/10/01 03:24:25;;;;;;;15.75;9.55;;;;;;;7.26;99.48;94079.40;1785946;78;21629;-86
2021/10/01 03:26:51;;;;;;;14.23;8.78;;;;;;;7.22;99.28;94081.23;1772507;79;21047;-87
2021/10/01 03:29:19;;;;;;;16.40;8.30;;;;;;;7.16;99.59;94078.62;1795371;77;21724;-87
2021/10/01 03:31:47;;;;;;;15.38;8.63;;;;;;;7.16;99.93;94075.91;1809694;77;21161;-87
2021/10/01 03:34:17;;;;;;;18.37;9.25;;;;;;;7.19;99.97;94082.75;1778948;79;21368;-87
2021/10/01 03:36:45;;;;;;;15.50;9.45;;;;;;;7.22;99.97;94085.28;1793116;79;21105;-86
2021/10/01 03:39:12;;;;;;;16.37;10.15;;;;;;;7.24;99.93;94085.73;1807661;77;21085;-86
2021/10/01 03:41:38;;;;;;;15.28;9.50;;;;;;;7.25;99.67;94081.30;1811917;77;21103;-87
2021/10/01 03:44:05;;;;;;;11.85;9.05;;;;;;;7.23;99.49;94082.24;1790194;77;21049;-87
2021/10/01 03:46:31;;;;;;;14.20;8.70;;;;;;;7.21;99.83;94079.67;1792153;79;21647;-87
2021/10/01 03:48:58;;;;;;;10.40;7.03;;;;;;;7.25;100.00;94081.88;1800743;79;21103;-87
2021/10/01 03:51:24;;;;;;;10.10;7.62;;;;;;;7.29;99.74;94080.80;1803016;78;21060;-87
2021/10/01 03:53:53;;;;;;;15.93;9.00;;;;;;;7.28;99.43;94079.23;1744962;80;21019;-87
2021/10/01 03:56:20;;;;;;;15.15;7.92;;;;;;;7.28;99.47;94074.40;1742596;80;21086;-85
2021/10/01 03:58:49;;;;;;;12.43;8.40;;;;;;;7.27;99.41;94078.25;1726946;81;21051;-86
2021/10/01 04:01:19;;;;;;;14.80;8.70;;;;;;;7.25;99.42;94078.59;1724157;81;21086;-87
2021/10/01 04:03:51;;;;;;;14.40;8.40;;;;;;;7.26;99.64;94075.34;1728414;81;21106;-88
2021/10/01 04:06:17;;;;;;;19.20;10.03;;;;;;;7.25;99.69;94074.53;1777262;79;21131;-87
2021/10/01 04:08:46;;;;;;;16.05;9.48;;;;;;;7.24;99.82;94074.91;1801299;77;21085;-87
2021/10/01 04:11:14;;;;;;;14.10;9.50;;;;;;;7.25;99.99;94078.59;1774001;80;21021;-87
2021/10/01 04:13:55;;;;;;;16.17;9.35;;;;;;;7.26;99.98;94078.05;1764277;79;21260;-86
2021/10/01 04:16:24;;;;;;;14.15;9.38;;;;;;;7.25;99.99;94085.36;1745383;79;21067;-88
2021/10/01 04:18:50;;;;;;;16.65;9.73;;;;;;;7.26;100.00;94088.88;1797059;77;21172;-88
2021/10/01 04:21:17;;;;;;;19.73;9.43;;;;;;;7.26;100.00;94088.30;1811738;77;21667;-87
2021/10/01 04:23:43;;;;;;;17.40;9.65;;;;;;;7.28;100.00;94091.98;1807846;76;21501;-88
2021/10/01 04:26:24;;;;;;;14.90;8.75;;;;;;;7.33;100.00;94094.96;1742983;77;21062;-88
2021/10/01 04:28:52;;;;;;;14.78;9.20;;;;;;;7.37;100.00;94093.91;1791506;79;21020;-88
2021/10/01 04:31:18;;;;;;;20.97;10.08;;;;;;;7.38;99.99;94102.81;1776488;79;21097;-87
2021/10/01 04:33:45;;;;;;;15.58;9.85;;;;;;;7.38;100.00;94095.47;1818388;78;21022;-87
2021/10/01 04:36:26;;;;;;;20.75;12.90;;;;;;;7.41;100.00;94106.94;1794913;77;21094;-90
2021/10/01 04:38:55;;;;;;;24.52;12.80;;;;;;;7.40;99.96;94105.34;1772827;79;21098;-87
2021/10/01 04:41:30;;;;;;;16.00;8.55;;;;;;;7.38;100.00;94103.59;1755694;79;21028;-90
2021/10/01 04:43:59;;;;;;;15.30;8.28;;;;;;;7.39;100.00;94111.13;1754610;79;21145;-88
2021/10/01 04:46:37;;;;;;;15.53;8.38;;;;;;;7.43;99.81;94113.33;1773951;79;21052;-89
2021/10/01 04:49:03;;;;;;;13.50;8.03;;;;;;;7.45;99.43;94108.36;1787800;78;21285;-88
2021/10/01 04:51:30;;;;;;;16.23;8.83;;;;;;;7.38;98.62;94113.62;1738330;80;21086;-89
2021/10/01 04:53:56;;;;;;;16.40;9.18;;;;;;;7.21;98.76;94116.97;1720361;82;21549;-89
2021/10/01 04:56:23;;;;;;;16.62;9.25;;;;;;;7.05;99.30;94117.04;1744592;80;21107;-88
2021/10/01 04:58:50;;;;;;;18.42;9.23;;;;;;;6.97;100.00;94115.91;1729548;82;21043;-86
2021/10/01 05:01:16;;;;;;;16.02;9.25;;;;;;;6.92;100.00;94119.68;1775527;79;21062;-86
2021/10/01 05:03:51;;;;;;;13.83;8.95;;;;;;;6.93;100.00;94119.11;1807814;77;21069;-86
2021/10/01 05:06:33;;;;;;;16.05;9.43;;;;;;;6.98;100.00;94120.95;1764560;79;21055;-87
2021/10/01 05:09:18;;;;;;;21.60;13.20;;;;;;;7.08;100.00;94124.25;1796944;78;21085;-87
2021/10/01 05:12:03;;;;;;;30.00;16.70;;;;;;;7.12;100.00;94125.09;1781806;78;21046;-87
2021/10/01 05:14:49;;;;;;;23.60;13.90;;;;;;;7.16;100.00;94117.84;1793671;78;21288;-88
2021/10/01 05:17:35;;;;;;;20.17;12.07;;;;;;;7.15;100.00;94127.09;1799108;78;21036;-85
2021/10/01 05:20:21;;;;;;;13.85;9.08;;;;;;;7.13;100.00;94126.66;1793951;79;21757;-87
2021/10/01 05:22:49;;;;;;;14.83;9.55;;;;;;;7.18;100.00;94129.06;1787473;79;21373;-87
2021/10/01 05:25:16;;;;;;;16.27;8.88;;;;;;;7.25;100.00;94129.21;1796262;77;21473;-87
2021/10/01 05:27:45;;;;;;;15.72;9.75;;;;;;;7.35;100.00;94130.00;1816375;77;20964;-87
2021/10/01 05:30:12;;;;;;;19.65;8.70;;;;;;;7.48;100.00;94132.75;1824543;77;20966;-87
2021/10/01 05:32:38;;;;;;;14.60;9.10;;;;;;;7.56;100.00;94135.05;1814628;77;21029;-87
2021/10/01 05:35:05;;;;;;;13.45;8.70;;;;;;;7.58;100.00;94138.73;1824966;77;21887;-86
2021/10/01 05:37:32;;;;;;;15.20;8.73;;;;;;;7.58;100.00;94140.09;1816913;77;21577;-87
2021/10/01 05:39:58;;;;;;;18.67;8.88;;;;;;;7.58;100.00;94144.93;1824074;77;21033;-88
2021/10/01 05:42:25;;;;;;;20.95;9.93;;;;;;;7.62;100.00;94145.78;1822450;77;21108;-86
2021/10/01 05:44:52;;;;;;;20.20;10.25;;;;;;;7.69;100.00;94148.63;1823345;77;21516;-87
2021/10/01 05:47:29;;;;;;;18.90;12.18;;;;;;;7.75;100.00;94152.61;1826952;77;21262;-88
2021/10/01 05:50:15;;;;;;;24.87;18.98;;;;;;;7.82;100.00;94143.81;1825118;77;21673;-88
2021/10/01 05:53:06;;;;;;;17.27;12.45;;;;;;;7.88;100.00;94145.67;1821106;77;21577;-87
2021/10/01 05:55:41;;;;;;;16.95;11.45;;;;;;;8.00;100.00;94152.27;1816655;77;21530;-88
2021/10/01 05:58:17;;;;;;;15.35;9.45;;;;;;;8.08;100.00;94158.58;1788865;77;37169;-87
2021/10/01 06:00:46;;;;;;;15.53;9.60;;;;;;;8.11;100.00;94157.29;1817898;77;21118;-87
2021/10/01 06:03:13;;;;;;;15.10;9.45;;;;;;;8.15;100.00;94164.91;1800811;77;21049;-87
2021/10/01 06:05:39;;;;;;;15.30;9.15;;;;;;;8.20;100.00;94163.84;1797669;77;21093;-87
2021/10/01 06:08:07;;;;;;;20.57;9.85;;;;;;;8.21;100.00;94167.53;1831275;77;21277;-88
2021/10/01 06:10:36;;;;;;;19.80;10.40;;;;;;;8.25;100.00;94167.02;1812520;77;21319;-87
2021/10/01 06:13:03;;;;;;;15.65;10.32;;;;;;;8.28;100.00;94169.01;1812043;77;21122;-87
2021/10/01 06:15:30;;;;;;;17.12;9.53;;;;;;;8.33;100.00;94165.78;1830987;77;21592;-87
2021/10/01 06:17:58;;;;;;;26.45;10.78;;;;;;;8.37;100.00;94168.79;1778181;77;21078;-88
2021/10/01 06:20:28;;;;;;;20.15;11.03;;;;;;;8.42;100.00;94167.69;1727671;81;21050;-88
2021/10/01 06:22:54;;;;;;;45.85;12.60;;;;;;;8.48;100.00;94164.32;1745342;80;21046;-88
2021/10/01 06:25:22;;;;;;;16.12;10.20;;;;;;;8.57;100.00;94170.84;1748232;80;22102;-87
2021/10/01 06:27:49;;;;;;;13.90;10.38;;;;;;;8.65;100.00;94169.83;1724362;81;21043;-88
2021/10/01 06:30:17;;;;;;;20.50;10.03;;;;;;;8.72;100.00;94167.20;1750104;79;21623;-87
2021/10/01 06:32:44;;;;;;;17.60;9.80;;;;;;;8.76;100.00;94171.31;1760078;79;21010;-88
2021/10/01 06:35:11;;;;;;;16.15;10.25;;;;;;;8.80;100.00;94168.66;1752337;80;21084;-87
2021/10/01 06:37:38;;;;;;;17.48;10.45;;;;;;;8.84;100.00;94168.13;1766916;79;22213;-88
2021/10/01 06:40:08;;;;;;;18.65;11.33;;;;;;;8.90;100.00;94172.89;1763598;80;21084;-86
2021/10/01 06:42:47;;;;;;;19.35;12.33;;;;;;;8.95;100.00;94176.66;1759596;80;21554;-88
2021/10/01 06:45:17;;;;;;;29.07;16.17;;;;;;;8.98;100.00;94180.55;1723736;81;21073;-87
2021/10/01 06:48:07;;;;;;;19.87;11.85;;;;;;;9.00;100.00;94172.27;1728745;80;21118;-87
2021/10/01 08:20:28;;;;;;;20.85;12.30;;;;;;;11.21;94.93;94151.69;1833955;77;21041;-85
2021/10/01 08:22:55;;;;;;;18.82;11.38;;;;;;;11.30;93.43;94154.86;1805698;77;21565;-87
2021/10/01 08:25:22;;;;;;;22.87;12.45;;;;;;;11.36;92.62;94151.40;1795113;77;21739;-86
2021/10/01 08:27:48;;;;;;;20.17;12.75;;;;;;;11.42;92.08;94148.49;1810175;77;21078;-86
2021/10/01 08:30:15;;;;;;;18.98;10.60;;;;;;;11.50;91.58;94153.97;1756449;80;21078;-86
2021/10/01 08:32:41;;;;;;;16.48;10.93;;;;;;;11.59;90.84;94149.74;1753964;80;21635;-86
2021/10/01 08:35:09;;;;;;;18.62;11.88;;;;;;;11.69;90.06;94144.12;1812107;77;21104;-85
2021/10/01 08:37:38;;;;;;;18.25;10.75;;;;;;;11.81;88.97;94138.34;1800119;77;21075;-86
2021/10/01 08:40:05;;;;;;;23.07;10.98;;;;;;;11.91;88.33;94144.41;1835230;76;21065;-86
2021/10/01 08:42:36;;;;;;;19.62;10.53;;;;;;;12.01;87.70;94136.66;1807461;77;21147;-86
2021/10/01 08:45:04;;;;;;;18.42;9.90;;;;;;;12.15;87.54;94131.23;1824606;77;21097;-86
2021/10/01 08:47:32;;;;;;;26.40;10.55;;;;;;;12.29;86.87;94138.05;1817949;77;21824;-87
2021/10/01 08:50:00;;;;;;;17.02;11.50;;;;;;;12.44;86.15;94125.20;1827289;77;21788;-87
2021/10/01 08:52:27;;;;;;;16.05;11.00;;;;;;;12.60;85.71;94134.38;1820248;77;21552;-87
2021/10/01 08:54:54;;;;;;;17.27;10.05;;;;;;;12.76;85.17;94126.56;1820130;77;21445;-87
2021/10/01 08:57:23;;;;;;;17.75;10.15;;;;;;;12.89;83.92;94124.20;1815935;76;21088;-88
2021/10/01 08:59:49;;;;;;;17.85;9.78;;;;;;;12.99;83.85;94124.00;1816237;77;21617;-88
2021/10/01 09:02:18;;;;;;;14.80;9.65;;;;;;;13.10;82.36;94120.07;1780892;78;20977;-87
2021/10/01 09:04:45;;;;;;;13.03;9.35;;;;;;;13.19;82.06;94121.61;1784293;78;22004;-87
2021/10/01 09:07:13;;;;;;;15.70;9.45;;;;;;;13.24;81.63;94116.56;1756541;80;21058;-87
2021/10/01 09:09:43;;;;;;;16.75;11.08;;;;;;;13.28;80.91;94114.60;1743035;78;21155;-85
2021/10/01 09:12:15;;;;;;;13.15;8.08;;;;;;;13.34;80.54;94110.27;1767232;79;21040;-88
2021/10/01 09:14:56;;;;;;;18.25;9.33;;;;;;;13.45;79.55;94106.73;1753040;80;21112;-85
2021/10/01 09:17:26;;;;;;;23.87;9.73;;;;;;;13.46;78.67;94113.15;1760685;78;21094;-87
2021/10/01 09:19:54;;;;;;;17.40;10.28;;;;;;;13.46;78.68;94100.08;1767554;77;21064;-86
2021/10/01 09:22:29;;;;;;;14.73;10.00;;;;;;;13.43;78.34;94099.53;1828114;76;21031;-87
2021/10/01 09:25:22;;;;;;;15.23;10.18;;;;;;;13.38;78.78;94104.02;1826589;76;21029;-86
2021/10/01 09:27:53;;;;;;;17.25;9.40;;;;;;;13.37;78.60;94101.87;1837297;76;21106;-87
2021/10/01 09:30:21;;;;;;;18.60;9.83;;;;;;;13.32;78.39;94103.08;1796537;77;21042;-85
2021/10/01 09:33:11;;;;;;;16.30;9.60;;;;;;;13.29;78.31;94098.40;1837719;76;21104;-86
2021/10/01 09:35:39;;;;;;;16.20;10.15;;;;;;;13.24;78.70;94098.02;1770154;77;21093;-86
2021/10/01 09:38:07;;;;;;;17.45;10.43;;;;;;;13.24;79.27;94093.35;1808207;77;21086;-87
2021/10/01 09:40:34;;;;;;;15.78;10.28;;;;;;;13.28;79.51;94092.75;1772062;78;21569;-85
2021/10/01 09:43:01;;;;;;;17.15;10.38;;;;;;;13.32;79.99;94090.78;1773772;78;21108;-86
2021/10/01 09:45:27;;;;;;;20.12;11.60;;;;;;;13.38;79.61;94093.09;1811759;77;21059;-86
2021/10/01 09:47:54;;;;;;;14.30;9.75;;;;;;;13.38;79.22;94094.45;1831287;76;21110;-87
2021/10/01 09:50:30;;;;;;;16.95;10.30;;;;;;;13.37;79.22;94086.86;1822516;77;21525;-86
2021/10/01 09:53:04;;;;;;;;;;;;;;;13.34;79.27;94091.15;1827065;77;21115;-86
2021/10/01 09:55:44;;;;;;;15.80;9.93;;;;;;;13.31;79.20;94090.60;1790286;77;20225;-87
2021/10/01 09:58:16;;;;;;;20.15;11.05;;;;;;;13.30;79.79;94088.25;1755435;80;21587;-85
2021/10/01 10:00:48;;;;;;;15.13;10.88;;;;;;;13.32;79.94;94092.15;1758984;77;22045;-87
2021/10/01 10:03:26;;;;;;;17.10;10.88;;;;;;;13.33;79.86;94082.77;1818193;77;21618;-86
2021/10/01 10:06:10;;;;;;;16.70;10.75;;;;;;;13.35;80.13;94086.46;1828563;75;21051;-87
2021/10/01 10:08:41;;;;;;;21.42;10.90;;;;;;;13.35;80.13;94088.63;1831371;77;21459;-88
2021/10/01 10:11:16;;;;;;;18.32;11.25;;;;;;;13.36;80.22;94083.94;1824441;77;21421;-87
2021/10/01 10:13:49;;;;;;;16.62;10.28;;;;;;;13.36;80.66;94083.35;1806487;76;21861;-87
2021/10/01 10:16:22;;;;;;;19.70;11.43;;;;;;;13.41;80.63;94087.62;1829410;77;21034;-87
2021/10/01 10:18:51;;;;;;;20.40;10.75;;;;;;;13.47;80.69;94090.73;1810100;77;21412;-87
2021/10/01 10:21:19;;;;;;;15.60;10.60;;;;;;;13.53;80.45;94082.30;1728465;80;21469;-86
2021/10/01 10:23:46;;;;;;;17.17;10.08;;;;;;;13.56;80.46;94081.50;1708520;81;20962;-85
2021/10/01 10:26:14;;;;;;;12.78;9.43;;;;;;;13.58;79.82;94075.84;1770403;78;21528;-87
2021/10/01 10:28:43;;;;;;;13.62;10.08;;;;;;;13.63;80.18;94080.70;1817168;77;21101;-86
2021/10/01 10:31:11;;;;;;;14.05;10.10;;;;;;;13.63;79.66;94077.97;1818005;77;21824;-87
2021/10/01 10:33:47;;;;;;;16.77;10.23;;;;;;;13.64;79.42;94083.02;1821812;77;21015;-86
2021/10/01 10:36:37;;;;;;;18.90;10.95;;;;;;;13.62;79.19;94079.92;1816215;77;21053;-85
2021/10/01 10:39:19;;;;;;;19.10;10.90;;;;;;;13.59;79.01;94073.88;1814109;77;21789;-86
2021/10/01 10:41:50;;;;;;;17.98;10.50;;;;;;;13.53;79.21;94078.97;1823826;77;21646;-85
2021/10/01 10:44:17;;;;;;;21.37;9.93;;;;;;;13.50;79.90;94074.89;1814893;77;21807;-86
2021/10/01 10:46:46;;;;;;;16.62;9.98;;;;;;;13.47;80.51;94072.97;1807349;76;21411;-86
2021/10/01 10:49:23;;;;;;;19.37;9.95;;;;;;;13.47;81.08;94074.34;1753404;79;21026;-85
2021/10/01 10:51:54;;;;;;;16.32;10.00;;;;;;;13.45;80.07;94076.68;1755025;79;21082;-86
2021/10/01 10:54:21;;;;;;;14.20;9.70;;;;;;;13.40;80.29;94073.00;1798319;77;21033;-85
2021/10/01 10:57:26;;;;;;;15.18;9.65;;;;;;;13.33;80.59;94073.21;1785740;77;21833;-86
2021/10/01 10:59:54;;;;;;;15.30;9.38;;;;;;;13.27;80.84;94070.69;1785548;78;21117;-85
2021/10/01 11:02:41;;;;;;;18.15;9.80;;;;;;;13.24;81.33;94068.77;1803376;78;21082;-87
2021/10/01 11:05:28;;;;;;;17.90;9.33;;;;;;;13.21;81.67;94074.99;1796367;77;21059;-86
2021/10/01 11:08:04;;;;;;;19.12;10.10;;;;;;;13.19;81.91;94073.23;1823581;77;21682;-86
2021/10/01 11:10:46;;;;;;;14.75;9.78;;;;;;;13.19;82.32;94070.50;1825271;77;21724;-87
2021/10/01 11:13:25;;;;;;;13.65;8.60;;;;;;;13.23;82.44;94070.48;1825651;77;21014;-86
2021/10/01 11:18:30;;;;;;;12.33;9.05;;;;;;;13.24;82.14;94068.77;1804048;77;21085;-86
2021/10/01 11:20:56;;;;;;;13.95;9.13;;;;;;;13.25;82.62;94064.09;1759341;78;21112;-86
2021/10/01 11:23:25;;;;;;;15.23;9.70;;;;;;;13.24;82.53;94061.95;1796640;78;21138;-87
2021/10/01 11:25:51;;;;;;;16.93;11.78;;;;;;;13.27;82.79;94057.03;1824151;77;21132;-87
2021/10/01 11:28:32;;;;;;;17.60;11.57;;;;;;;13.29;83.30;94055.29;1821757;77;21124;-87
2021/10/01 11:30:58;;;;;;;17.25;10.72;;;;;;;13.34;83.07;94057.59;1764788;79;21463;-86
2021/10/01 11:33:24;;;;;;;17.05;11.20;;;;;;;13.41;82.92;94051.33;1808781;77;21084;-87
2021/10/01 11:35:56;;;;;;;20.35;11.30;;;;;;;13.44;82.70;94051.91;1819613;77;21825;-86
2021/10/01 11:38:30;;;;;;;17.52;10.95;;;;;;;13.44;82.73;94045.08;1828721;77;21620;-86
2021/10/01 11:41:13;;;;;;;16.85;10.20;;;;;;;13.48;82.50;94045.84;1825592;77;21025;-86
2021/10/01 11:43:54;;;;;;;16.42;11.90;;;;;;;13.53;82.40;94044.05;1827831;77;21049;-85
2021/10/01 11:46:35;;;;;;;16.30;10.65;;;;;;;13.56;81.90;94037.79;1827199;77;21053;-88
2021/10/01 11:49:03;;;;;;;13.45;10.18;;;;;;;13.56;81.29;94048.72;1827149;77;21114;-87
2021/10/01 11:51:31;;;;;;;13.48;10.55;;;;;;;13.53;81.29;94051.65;1825855;77;21093;-86
2021/10/01 11:54:13;;;;;;;19.95;12.82;;;;;;;13.46;81.08;94051.68;1828608;77;21008;-88
2021/10/01 11:56:41;;;;;;;15.65;10.00;;;;;;;13.39;81.46;94047.64;1827581;77;21057;-88
2021/10/01 11:59:07;;;;;;;17.25;11.35;;;;;;;13.35;81.91;94046.86;1828755;77;21053;-88
2021/10/01 12:01:35;;;;;;;16.02;11.38;;;;;;;13.32;82.03;94046.31;1825700;77;21134;-87
2021/10/01 12:04:02;;;;;;;16.82;11.35;;;;;;;13.30;82.15;94050.01;1833824;77;21102;-87
2021/10/01 12:06:35;;;;;;;16.70;11.48;;;;;;;13.28;82.42;94048.28;1826630;77;21045;-88
2021/10/01 12:09:06;;;;;;;19.62;12.93;;;;;;;13.24;82.47;94051.59;1830196;77;21029;-88
2021/10/01 12:11:40;;;;;;;20.35;13.25;;;;;;;13.19;82.53;94047.28;1825431;77;21010;-88
2021/10/01 12:14:17;;;;;;;74.03;16.75;;;;;;;13.14;82.58;94051.80;1828021;77;21077;-87
2021/10/01 12:17:00;;;;;;;29.48;15.88;;;;;;;13.09;82.55;94048.13;1823118;77;21164;-88
2021/10/01 12:19:27;;;;;;;20.82;13.28;;;;;;;13.05;82.65;94050.06;1831228;77;21045;-87
2021/10/01 12:22:12;;;;;;;23.57;14.10;;;;;;;13.00;82.90;94049.89;1829222;77;21038;-87
2021/10/01 12:24:53;;;;;;;20.75;13.10;;;;;;;12.97;83.03;94050.67;1826828;77;21022;-86
2021/10/01 12:27:34;;;;;;;19.05;12.47;;;;;;;12.92;83.03;94044.86;1834871;77;21169;-85
2021/10/01 12:30:00;;;;;;;20.27;11.65;;;;;;;12.84;83.19;94053.06;1823052;77;21036;-87
2021/10/01 12:32:27;;;;;;;19.02;12.88;;;;;;;12.78;83.31;94049.16;1812237;77;21948;-85
2021/10/01 12:34:58;;;;;;;22.17;12.80;;;;;;;12.74;83.68;94051.72;1827262;77;21551;-88
2021/10/01 12:37:28;;;;;;;22.70;12.37;;;;;;;12.68;83.60;94054.67;1829943;77;21407;-88
2021/10/01 12:39:58;;;;;;;19.48;13.43;;;;;;;12.62;83.87;94055.05;1826641;77;21471;-85
2021/10/01 12:42:31;;;;;;;20.12;12.37;;;;;;;12.58;84.27;94050.77;1823743;77;21026;-86
2021/10/01 12:45:04;;;;;;;19.42;13.25;;;;;;;12.50;84.53;94054.09;1822206;77;21073;-88
2021/10/01 12:47:38;;;;;;;19.02;12.10;;;;;;;12.44;84.94;94051.56;1812746;77;21077;-85
2021/10/01 12:50:12;;;;;;;18.60;12.43;;;;;;;12.40;85.40;94057.02;1792267;79;21081;-85
2021/10/01 12:52:45;;;;;;;24.40;13.97;;;;;;;12.40;86.01;94058.38;1786512;77;21110;-85
2021/10/01 12:55:14;;;;;;;19.48;13.18;;;;;;;12.46;86.10;94061.51;1826496;76;21045;-87
2021/10/01 12:57:45;;;;;;;24.07;13.13;;;;;;;12.50;85.95;94058.78;1774696;76;21120;-89
2021/10/01 13:00:26;;;;;;;22.65;13.70;;;;;;;12.50;85.88;94060.92;1803839;77;21034;-86
2021/10/01 13:03:02;;;;;;;24.63;15.10;;;;;;;12.48;86.14;94054.28;1829885;77;21104;-87
2021/10/01 13:05:44;;;;;;;24.95;13.83;;;;;;;12.51;86.46;94052.92;1830753;77;21421;-87
2021/10/01 13:08:15;;;;;;;20.75;12.70;;;;;;;12.56;86.55;94055.83;1824786;77;21095;-87
2021/10/01 13:10:53;;;;;;;21.27;14.00;;;;;;;12.59;86.63;94051.73;1827682;77;21021;-87
2021/10/01 13:13:28;;;;;;;25.50;13.55;;;;;;;12.60;86.24;94055.27;1819643;77;21073;-87
2021/10/01 13:16:07;;;;;;;22.60;14.05;;;;;;;12.58;86.28;94052.14;1828270;77;21035;-87
2021/10/01 13:18:39;;;;;;;24.12;14.45;;;;;;;12.59;86.53;94056.41;1824259;77;21088;-86